sensor_id;sensor_type;location;lat;lon;timestamp;P1;durP1;ratioP1;P2;durP2;ratioP2
42000;SDS011;27689;48.390;10.856;2023-05-10T00:00:13;2.80;;;1.80;;
42000;SDS011;27689;48.390;10.856;2023-05-10T00:02:57;1.90;;;1.70;;
42000;SDS011;27689;48.390;10.856;2023-05-10T00:05:42;2.03;;;1.57;;
42000;SDS011;27689;48.390;10.856;2023-05-10T00:08:31;3.10;;;1.90;;
42000;SDS011;27689;48.390;10.856;2023-05-10T00:11:23;2.55;;;1.83;;
42000;SDS011;27689;48.390;10.856;2023-05-10T00:14:22;2.75;;;1.95;;
42000;SDS011;27689;48.390;10.856;2023-05-10T00:17:12;2.25;;;1.90;;
42000;SDS011;27689;48.390;10.856;2023-05-10T00:20:05;2.75;;;2.17;;
42000;SDS011;27689;48.390;10.856;2023-05-10T00:22:52;1.92;;;1.70;;
42000;SDS011;27689;48.390;10.856;2023-05-10T00:25:47;4.10;;;1.67;;
42000;SDS011;27689;48.390;10.856;2023-05-10T00:28:39;2.10;;;1.88;;
42000;SDS011;27689;48.390;10.856;2023-05-10T00:31:29;2.33;;;2.03;;
42000;SDS011;27689;48.390;10.856;2023-05-10T00:34:17;1.70;;;1.60;;
42000;SDS011;27689;48.390;10.856;2023-05-10T00:37:09;2.50;;;1.73;;
42000;SDS011;27689;48.390;10.856;2023-05-10T00:40:01;2.58;;;1.70;;
42000;SDS011;27689;48.390;10.856;2023-05-10T00:42:51;2.28;;;1.80;;
42000;SDS011;27689;48.390;10.856;2023-05-10T00:45:37;1.63;;;1.50;;
42000;SDS011;27689;48.390;10.856;2023-05-10T00:48:24;1.73;;;1.60;;
42000;SDS011;27689;48.390;10.856;2023-05-10T00:51:23;2.17;;;1.70;;
42000;SDS011;27689;48.390;10.856;2023-05-10T00:54:16;3.53;;;1.60;;
42000;SDS011;27689;48.390;10.856;2023-05-10T00:57:05;1.63;;;1.30;;
42000;SDS011;27689;48.390;10.856;2023-05-10T00:59:54;2.20;;;1.70;;
42000;SDS011;27689;48.390;10.856;2023-05-10T01:02:43;2.75;;;1.70;;
42000;SDS011;27689;48.390;10.856;2023-05-10T01:05:31;3.13;;;1.70;;
42000;SDS011;27689;48.390;10.856;2023-05-10T01:08:20;3.63;;;1.77;;
42000;SDS011;27689;48.390;10.856;2023-05-10T01:11:11;2.00;;;1.80;;
42000;SDS011;27689;48.390;10.856;2023-05-10T01:14:08;1.92;;;1.75;;
42000;SDS011;27689;48.390;10.856;2023-05-10T01:16:55;2.13;;;1.90;;
42000;SDS011;27689;48.390;10.856;2023-05-10T01:19:43;2.42;;;1.70;;
42000;SDS011;27689;48.390;10.856;2023-05-10T01:28:35;3.30;;;1.70;;
42000;SDS011;27689;48.390;10.856;2023-05-10T01:34:55;4.60;;;1.55;;
42000;SDS011;27689;48.390;10.856;2023-05-10T01:37:47;1.77;;;1.63;;
42000;SDS011;27689;48.390;10.856;2023-05-10T01:40:37;4.30;;;1.52;;
42000;SDS011;27689;48.390;10.856;2023-05-10T01:43:36;2.33;;;1.75;;
42000;SDS011;27689;48.390;10.856;2023-05-10T01:46:38;1.70;;;1.38;;
42000;SDS011;27689;48.390;10.856;2023-05-10T01:49:32;1.95;;;1.58;;
42000;SDS011;27689;48.390;10.856;2023-05-10T01:52:26;2.25;;;1.42;;
42000;SDS011;27689;48.390;10.856;2023-05-10T01:55:20;1.40;;;1.30;;
42000;SDS011;27689;48.390;10.856;2023-05-10T02:01:14;2.22;;;1.50;;
42000;SDS011;27689;48.390;10.856;2023-05-10T02:04:06;1.45;;;1.20;;
42000;SDS011;27689;48.390;10.856;2023-05-10T02:06:57;2.85;;;1.30;;
42000;SDS011;27689;48.390;10.856;2023-05-10T02:09:59;1.70;;;1.30;;
42000;SDS011;27689;48.390;10.856;2023-05-10T02:12:47;2.50;;;1.60;;
42000;SDS011;27689;48.390;10.856;2023-05-10T02:15:48;1.52;;;1.30;;
42000;SDS011;27689;48.390;10.856;2023-05-10T02:18:35;2.63;;;0.90;;
42000;SDS011;27689;48.390;10.856;2023-05-10T02:21:37;1.70;;;1.13;;
42000;SDS011;27689;48.390;10.856;2023-05-10T02:24:26;1.15;;;1.05;;
42000;SDS011;27689;48.390;10.856;2023-05-10T02:27:20;1.55;;;1.20;;
42000;SDS011;27689;48.390;10.856;2023-05-10T02:30:05;1.30;;;0.70;;
42000;SDS011;27689;48.390;10.856;2023-05-10T02:32:55;2.65;;;1.20;;
42000;SDS011;27689;48.390;10.856;2023-05-10T02:35:47;1.40;;;1.10;;
42000;SDS011;27689;48.390;10.856;2023-05-10T02:38:34;2.22;;;0.93;;
42000;SDS011;27689;48.390;10.856;2023-05-10T02:41:23;0.82;;;0.80;;
42000;SDS011;27689;48.390;10.856;2023-05-10T02:44:13;1.38;;;1.02;;
42000;SDS011;27689;48.390;10.856;2023-05-10T02:47:06;1.00;;;0.90;;
42000;SDS011;27689;48.390;10.856;2023-05-10T02:49:57;1.90;;;0.90;;
42000;SDS011;27689;48.390;10.856;2023-05-10T02:52:44;3.10;;;0.90;;
42000;SDS011;27689;48.390;10.856;2023-05-10T02:55:45;0.80;;;0.80;;
42000;SDS011;27689;48.390;10.856;2023-05-10T02:58:42;1.13;;;0.80;;
42000;SDS011;27689;48.390;10.856;2023-05-10T03:01:29;1.85;;;1.02;;
42000;SDS011;27689;48.390;10.856;2023-05-10T03:04:14;1.25;;;0.70;;
42000;SDS011;27689;48.390;10.856;2023-05-10T03:07:04;1.17;;;0.60;;
42000;SDS011;27689;48.390;10.856;2023-05-10T03:09:54;1.38;;;0.60;;
42000;SDS011;27689;48.390;10.856;2023-05-10T03:16:33;1.50;;;0.50;;
42000;SDS011;27689;48.390;10.856;2023-05-10T03:19:37;0.50;;;0.50;;
42000;SDS011;27689;48.390;10.856;2023-05-10T03:22:52;0.45;;;0.45;;
42000;SDS011;27689;48.390;10.856;2023-05-10T03:25:40;1.00;;;0.60;;
42000;SDS011;27689;48.390;10.856;2023-05-10T03:28:32;2.40;;;0.50;;
42000;SDS011;27689;48.390;10.856;2023-05-10T03:31:23;1.30;;;0.43;;
42000;SDS011;27689;48.390;10.856;2023-05-10T03:34:11;1.42;;;0.32;;
42000;SDS011;27689;48.390;10.856;2023-05-10T03:36:55;0.80;;;0.40;;
42000;SDS011;27689;48.390;10.856;2023-05-10T03:39:42;1.00;;;0.35;;
42000;SDS011;27689;48.390;10.856;2023-05-10T03:42:40;0.60;;;0.40;;
42000;SDS011;27689;48.390;10.856;2023-05-10T03:45:30;0.45;;;0.35;;
42000;SDS011;27689;48.390;10.856;2023-05-10T03:48:16;0.30;;;0.20;;
42000;SDS011;27689;48.390;10.856;2023-05-10T03:51:06;1.38;;;0.20;;
42000;SDS011;27689;48.390;10.856;2023-05-10T03:53:53;1.77;;;1.00;;
42000;SDS011;27689;48.390;10.856;2023-05-10T03:56:42;1.83;;;0.40;;
42000;SDS011;27689;48.390;10.856;2023-05-10T03:59:29;0.30;;;0.30;;
42000;SDS011;27689;48.390;10.856;2023-05-10T04:02:23;0.77;;;0.30;;
42000;SDS011;27689;48.390;10.856;2023-05-10T04:05:15;0.50;;;0.30;;
42000;SDS011;27689;48.390;10.856;2023-05-10T04:08:02;0.55;;;0.30;;
42000;SDS011;27689;48.390;10.856;2023-05-10T04:10:47;0.40;;;0.30;;
42000;SDS011;27689;48.390;10.856;2023-05-10T04:13:40;1.33;;;0.80;;
42000;SDS011;27689;48.390;10.856;2023-05-10T04:16:35;0.82;;;0.32;;
42000;SDS011;27689;48.390;10.856;2023-05-10T04:19:19;2.22;;;0.50;;
42000;SDS011;27689;48.390;10.856;2023-05-10T04:22:14;1.10;;;0.43;;
42000;SDS011;27689;48.390;10.856;2023-05-10T04:25:04;0.98;;;0.40;;
42000;SDS011;27689;48.390;10.856;2023-05-10T04:27:54;0.50;;;0.30;;
42000;SDS011;27689;48.390;10.856;2023-05-10T04:30:37;1.45;;;0.60;;
42000;SDS011;27689;48.390;10.856;2023-05-10T04:33:22;0.50;;;0.50;;
42000;SDS011;27689;48.390;10.856;2023-05-10T04:36:12;2.50;;;0.45;;
42000;SDS011;27689;48.390;10.856;2023-05-10T04:39:16;1.63;;;0.70;;
42000;SDS011;27689;48.390;10.856;2023-05-10T04:42:10;1.40;;;0.60;;
42000;SDS011;27689;48.390;10.856;2023-05-10T04:45:09;0.60;;;0.40;;
42000;SDS011;27689;48.390;10.856;2023-05-10T04:47:58;1.13;;;0.38;;
42000;SDS011;27689;48.390;10.856;2023-05-10T04:50:48;0.40;;;0.40;;
42000;SDS011;27689;48.390;10.856;2023-05-10T04:53:47;0.68;;;0.50;;
42000;SDS011;27689;48.390;10.856;2023-05-10T04:56:40;1.20;;;0.40;;
42000;SDS011;27689;48.390;10.856;2023-05-10T04:59:27;0.70;;;0.60;;
42000;SDS011;27689;48.390;10.856;2023-05-10T05:02:12;1.35;;;0.70;;
42000;SDS011;27689;48.390;10.856;2023-05-10T05:04:56;2.40;;;0.95;;
42000;SDS011;27689;48.390;10.856;2023-05-10T05:07:43;1.55;;;0.60;;
42000;SDS011;27689;48.390;10.856;2023-05-10T05:10:33;1.10;;;1.00;;
42000;SDS011;27689;48.390;10.856;2023-05-10T05:13:17;3.00;;;1.30;;
42000;SDS011;27689;48.390;10.856;2023-05-10T05:16:09;1.00;;;0.90;;
42000;SDS011;27689;48.390;10.856;2023-05-10T05:18:59;0.40;;;0.40;;
42000;SDS011;27689;48.390;10.856;2023-05-10T05:21:59;0.85;;;0.60;;
42000;SDS011;27689;48.390;10.856;2023-05-10T05:24:47;2.00;;;0.95;;
42000;SDS011;27689;48.390;10.856;2023-05-10T05:27:32;1.23;;;0.70;;
42000;SDS011;27689;48.390;10.856;2023-05-10T05:30:16;1.20;;;0.70;;
42000;SDS011;27689;48.390;10.856;2023-05-10T05:33:00;2.20;;;0.55;;
42000;SDS011;27689;48.390;10.856;2023-05-10T05:35:53;1.25;;;0.43;;
42000;SDS011;27689;48.390;10.856;2023-05-10T05:38:39;0.75;;;0.40;;
42000;SDS011;27689;48.390;10.856;2023-05-10T05:41:28;1.75;;;0.88;;
42000;SDS011;27689;48.390;10.856;2023-05-10T05:44:35;4.10;;;0.65;;
42000;SDS011;27689;48.390;10.856;2023-05-10T05:47:23;0.90;;;0.80;;
42000;SDS011;27689;48.390;10.856;2023-05-10T05:50:15;3.08;;;1.20;;
42000;SDS011;27689;48.390;10.856;2023-05-10T05:53:02;1.40;;;1.10;;
42000;SDS011;27689;48.390;10.856;2023-05-10T05:58:41;1.27;;;0.60;;
42000;SDS011;27689;48.390;10.856;2023-05-10T06:01:37;0.60;;;0.50;;
42000;SDS011;27689;48.390;10.856;2023-05-10T06:04:21;1.63;;;0.70;;
42000;SDS011;27689;48.390;10.856;2023-05-10T06:07:08;1.83;;;0.70;;
42000;SDS011;27689;48.390;10.856;2023-05-10T06:10:01;0.47;;;0.47;;
42000;SDS011;27689;48.390;10.856;2023-05-10T06:12:48;2.47;;;0.70;;
42000;SDS011;27689;48.390;10.856;2023-05-10T06:15:35;1.77;;;0.85;;
42000;SDS011;27689;48.390;10.856;2023-05-10T06:18:27;1.10;;;0.70;;
42000;SDS011;27689;48.390;10.856;2023-05-10T06:21:20;1.88;;;0.82;;
42000;SDS011;27689;48.390;10.856;2023-05-10T06:24:15;4.00;;;0.88;;
42000;SDS011;27689;48.390;10.856;2023-05-10T06:27:02;3.70;;;1.20;;
42000;SDS011;27689;48.390;10.856;2023-05-10T06:29:52;1.23;;;0.70;;
42000;SDS011;27689;48.390;10.856;2023-05-10T06:32:40;3.20;;;1.10;;
42000;SDS011;27689;48.390;10.856;2023-05-10T06:35:28;2.17;;;1.10;;
42000;SDS011;27689;48.390;10.856;2023-05-10T06:38:15;2.63;;;1.00;;
42000;SDS011;27689;48.390;10.856;2023-05-10T06:41:02;1.45;;;1.05;;
42000;SDS011;27689;48.390;10.856;2023-05-10T06:43:46;2.83;;;1.10;;
42000;SDS011;27689;48.390;10.856;2023-05-10T06:46:33;2.25;;;1.00;;
42000;SDS011;27689;48.390;10.856;2023-05-10T06:49:20;2.17;;;0.90;;
42000;SDS011;27689;48.390;10.856;2023-05-10T06:52:09;1.40;;;1.10;;
42000;SDS011;27689;48.390;10.856;2023-05-10T06:54:55;1.75;;;0.80;;
42000;SDS011;27689;48.390;10.856;2023-05-10T06:57:48;2.55;;;0.93;;
42000;SDS011;27689;48.390;10.856;2023-05-10T07:00:32;3.05;;;0.90;;
42000;SDS011;27689;48.390;10.856;2023-05-10T07:03:23;1.63;;;0.98;;
42000;SDS011;27689;48.390;10.856;2023-05-10T07:06:20;2.60;;;0.98;;
42000;SDS011;27689;48.390;10.856;2023-05-10T07:09:08;2.53;;;0.90;;
42000;SDS011;27689;48.390;10.856;2023-05-10T07:12:00;3.38;;;0.90;;
42000;SDS011;27689;48.390;10.856;2023-05-10T07:14:45;2.13;;;0.90;;
42000;SDS011;27689;48.390;10.856;2023-05-10T07:17:34;3.60;;;0.80;;
42000;SDS011;27689;48.390;10.856;2023-05-10T07:20:18;1.25;;;0.80;;
42000;SDS011;27689;48.390;10.856;2023-05-10T07:23:05;7.43;;;1.95;;
42000;SDS011;27689;48.390;10.856;2023-05-10T07:25:55;3.80;;;1.20;;
42000;SDS011;27689;48.390;10.856;2023-05-10T07:28:41;4.50;;;1.00;;
42000;SDS011;27689;48.390;10.856;2023-05-10T07:31:30;3.25;;;1.00;;
42000;SDS011;27689;48.390;10.856;2023-05-10T07:34:23;1.80;;;0.80;;
42000;SDS011;27689;48.390;10.856;2023-05-10T07:37:10;1.52;;;0.80;;
42000;SDS011;27689;48.390;10.856;2023-05-10T07:39:57;0.90;;;0.70;;
42000;SDS011;27689;48.390;10.856;2023-05-10T07:42:51;1.92;;;0.70;;
42000;SDS011;27689;48.390;10.856;2023-05-10T07:45:41;1.55;;;0.80;;
42000;SDS011;27689;48.390;10.856;2023-05-10T07:48:25;2.60;;;0.80;;
42000;SDS011;27689;48.390;10.856;2023-05-10T07:51:09;1.25;;;0.57;;
42000;SDS011;27689;48.390;10.856;2023-05-10T07:53:56;1.13;;;0.70;;
42000;SDS011;27689;48.390;10.856;2023-05-10T07:56:44;1.25;;;0.73;;
42000;SDS011;27689;48.390;10.856;2023-05-10T07:59:53;1.15;;;0.60;;
42000;SDS011;27689;48.390;10.856;2023-05-10T08:02:46;3.65;;;0.60;;
42000;SDS011;27689;48.390;10.856;2023-05-10T08:05:33;1.45;;;0.52;;
42000;SDS011;27689;48.390;10.856;2023-05-10T08:08:26;1.00;;;0.75;;
42000;SDS011;27689;48.390;10.856;2023-05-10T08:11:10;0.47;;;0.47;;
42000;SDS011;27689;48.390;10.856;2023-05-10T08:14:14;2.80;;;0.95;;
42000;SDS011;27689;48.390;10.856;2023-05-10T08:16:58;1.17;;;0.70;;
42000;SDS011;27689;48.390;10.856;2023-05-10T08:19:54;1.83;;;0.55;;
42000;SDS011;27689;48.390;10.856;2023-05-10T08:22:47;1.23;;;0.63;;
42000;SDS011;27689;48.390;10.856;2023-05-10T08:25:31;2.63;;;0.75;;
42000;SDS011;27689;48.390;10.856;2023-05-10T08:28:18;1.48;;;0.70;;
42000;SDS011;27689;48.390;10.856;2023-05-10T08:31:10;1.30;;;0.65;;
42000;SDS011;27689;48.390;10.856;2023-05-10T08:36:39;1.20;;;0.70;;
42000;SDS011;27689;48.390;10.856;2023-05-10T08:39:45;2.00;;;0.63;;
42000;SDS011;27689;48.390;10.856;2023-05-10T08:42:34;1.15;;;0.70;;
42000;SDS011;27689;48.390;10.856;2023-05-10T08:45:25;1.70;;;0.70;;
42000;SDS011;27689;48.390;10.856;2023-05-10T08:48:18;2.10;;;0.82;;
42000;SDS011;27689;48.390;10.856;2023-05-10T08:51:08;1.13;;;0.80;;
42000;SDS011;27689;48.390;10.856;2023-05-10T08:54:02;1.33;;;0.70;;
42000;SDS011;27689;48.390;10.856;2023-05-10T08:56:49;1.73;;;0.82;;
42000;SDS011;27689;48.390;10.856;2023-05-10T08:59:39;1.38;;;0.77;;
42000;SDS011;27689;48.390;10.856;2023-05-10T09:02:27;1.40;;;0.70;;
42000;SDS011;27689;48.390;10.856;2023-05-10T09:05:18;1.40;;;0.88;;
42000;SDS011;27689;48.390;10.856;2023-05-10T09:08:02;1.65;;;0.90;;
42000;SDS011;27689;48.390;10.856;2023-05-10T09:10:53;0.90;;;0.60;;
42000;SDS011;27689;48.390;10.856;2023-05-10T09:13:41;0.95;;;0.70;;
42000;SDS011;27689;48.390;10.856;2023-05-10T09:19:12;1.85;;;0.95;;
42000;SDS011;27689;48.390;10.856;2023-05-10T09:21:57;1.25;;;0.88;;
42000;SDS011;27689;48.390;10.856;2023-05-10T09:24:46;1.30;;;0.90;;
42000;SDS011;27689;48.390;10.856;2023-05-10T09:27:30;1.65;;;0.93;;
42000;SDS011;27689;48.390;10.856;2023-05-10T09:30:23;2.03;;;1.07;;
42000;SDS011;27689;48.390;10.856;2023-05-10T09:33:09;2.30;;;0.90;;
42000;SDS011;27689;48.390;10.856;2023-05-10T09:35:53;2.00;;;0.80;;
42000;SDS011;27689;48.390;10.856;2023-05-10T09:38:47;3.90;;;1.00;;
42000;SDS011;27689;48.390;10.856;2023-05-10T09:41:32;3.42;;;1.25;;
42000;SDS011;27689;48.390;10.856;2023-05-10T09:44:16;1.52;;;0.85;;
42000;SDS011;27689;48.390;10.856;2023-05-10T09:47:02;2.55;;;1.15;;
42000;SDS011;27689;48.390;10.856;2023-05-10T09:49:50;1.38;;;0.93;;
42000;SDS011;27689;48.390;10.856;2023-05-10T09:52:51;1.90;;;1.25;;
42000;SDS011;27689;48.390;10.856;2023-05-10T09:55:42;3.00;;;1.13;;
42000;SDS011;27689;48.390;10.856;2023-05-10T09:58:34;3.22;;;1.02;;
42000;SDS011;27689;48.390;10.856;2023-05-10T10:01:20;1.63;;;1.00;;
42000;SDS011;27689;48.390;10.856;2023-05-10T10:04:05;2.80;;;0.98;;
42000;SDS011;27689;48.390;10.856;2023-05-10T10:07:12;2.45;;;0.65;;
42000;SDS011;27689;48.390;10.856;2023-05-10T10:09:55;0.90;;;0.75;;
42000;SDS011;27689;48.390;10.856;2023-05-10T10:12:40;1.67;;;0.70;;
42000;SDS011;27689;48.390;10.856;2023-05-10T10:18:12;1.88;;;0.60;;
42000;SDS011;27689;48.390;10.856;2023-05-10T10:20:57;1.38;;;0.80;;
42000;SDS011;27689;48.390;10.856;2023-05-10T10:23:42;3.63;;;0.90;;
42000;SDS011;27689;48.390;10.856;2023-05-10T10:26:26;1.58;;;0.80;;
42000;SDS011;27689;48.390;10.856;2023-05-10T10:29:21;2.00;;;0.98;;
42000;SDS011;27689;48.390;10.856;2023-05-10T10:32:19;1.50;;;0.90;;
42000;SDS011;27689;48.390;10.856;2023-05-10T10:35:09;3.53;;;0.90;;
42000;SDS011;27689;48.390;10.856;2023-05-10T10:37:53;1.00;;;0.90;;
42000;SDS011;27689;48.390;10.856;2023-05-10T10:40:37;2.20;;;1.05;;
42000;SDS011;27689;48.390;10.856;2023-05-10T10:43:27;2.33;;;0.95;;
42000;SDS011;27689;48.390;10.856;2023-05-10T10:46:16;2.78;;;1.30;;
42000;SDS011;27689;48.390;10.856;2023-05-10T10:49:10;1.35;;;0.90;;
42000;SDS011;27689;48.390;10.856;2023-05-10T10:54:59;1.63;;;0.70;;
42000;SDS011;27689;48.390;10.856;2023-05-10T11:00:38;1.45;;;0.80;;
42000;SDS011;27689;48.390;10.856;2023-05-10T11:03:24;2.28;;;0.70;;
42000;SDS011;27689;48.390;10.856;2023-05-10T11:06:09;1.58;;;0.70;;
42000;SDS011;27689;48.390;10.856;2023-05-10T11:08:53;0.88;;;0.70;;
42000;SDS011;27689;48.390;10.856;2023-05-10T11:11:48;1.05;;;0.68;;
42000;SDS011;27689;48.390;10.856;2023-05-10T11:14:34;1.20;;;0.85;;
42000;SDS011;27689;48.390;10.856;2023-05-10T11:17:27;1.75;;;0.75;;
42000;SDS011;27689;48.390;10.856;2023-05-10T11:20:15;2.58;;;1.08;;
42000;SDS011;27689;48.390;10.856;2023-05-10T11:23:10;2.75;;;0.93;;
42000;SDS011;27689;48.390;10.856;2023-05-10T11:26:00;4.47;;;0.90;;
42000;SDS011;27689;48.390;10.856;2023-05-10T11:28:48;1.50;;;0.90;;
42000;SDS011;27689;48.390;10.856;2023-05-10T11:31:32;2.35;;;0.95;;
42000;SDS011;27689;48.390;10.856;2023-05-10T11:34:30;1.67;;;0.93;;
42000;SDS011;27689;48.390;10.856;2023-05-10T11:37:17;1.73;;;0.80;;
42000;SDS011;27689;48.390;10.856;2023-05-10T11:42:46;1.05;;;0.88;;
42000;SDS011;27689;48.390;10.856;2023-05-10T11:45:33;1.60;;;0.77;;
42000;SDS011;27689;48.390;10.856;2023-05-10T11:48:17;1.90;;;0.90;;
42000;SDS011;27689;48.390;10.856;2023-05-10T11:51:06;1.20;;;0.68;;
42000;SDS011;27689;48.390;10.856;2023-05-10T11:53:55;1.25;;;1.00;;
42000;SDS011;27689;48.390;10.856;2023-05-10T11:56:40;2.03;;;0.98;;
42000;SDS011;27689;48.390;10.856;2023-05-10T12:02:08;1.50;;;1.00;;
42000;SDS011;27689;48.390;10.856;2023-05-10T12:04:54;3.03;;;1.88;;
42000;SDS011;27689;48.390;10.856;2023-05-10T12:10:26;2.42;;;0.80;;
42000;SDS011;27689;48.390;10.856;2023-05-10T12:13:14;0.93;;;0.82;;
42000;SDS011;27689;48.390;10.856;2023-05-10T12:15:59;8.48;;;3.70;;
42000;SDS011;27689;48.390;10.856;2023-05-10T12:18:44;14.98;;;6.93;;
42000;SDS011;27689;48.390;10.856;2023-05-10T12:21:31;5.78;;;3.13;;
42000;SDS011;27689;48.390;10.856;2023-05-10T12:24:16;0.90;;;0.60;;
42000;SDS011;27689;48.390;10.856;2023-05-10T12:27:04;2.78;;;0.82;;
42000;SDS011;27689;48.390;10.856;2023-05-10T12:29:48;1.13;;;0.60;;
42000;SDS011;27689;48.390;10.856;2023-05-10T12:32:43;0.60;;;0.40;;
42000;SDS011;27689;48.390;10.856;2023-05-10T12:35:30;2.85;;;0.75;;
42000;SDS011;27689;48.390;10.856;2023-05-10T12:41:18;2.92;;;0.57;;
42000;SDS011;27689;48.390;10.856;2023-05-10T12:47:43;1.48;;;0.50;;
42000;SDS011;27689;48.390;10.856;2023-05-10T12:50:27;0.93;;;0.45;;
42000;SDS011;27689;48.390;10.856;2023-05-10T12:53:12;2.20;;;0.80;;
42000;SDS011;27689;48.390;10.856;2023-05-10T12:56:00;0.80;;;0.60;;
42000;SDS011;27689;48.390;10.856;2023-05-10T12:58:46;1.15;;;0.68;;
42000;SDS011;27689;48.390;10.856;2023-05-10T13:01:31;1.65;;;0.60;;
42000;SDS011;27689;48.390;10.856;2023-05-10T13:04:15;4.25;;;0.82;;
42000;SDS011;27689;48.390;10.856;2023-05-10T13:06:59;2.55;;;0.70;;
42000;SDS011;27689;48.390;10.856;2023-05-10T13:09:43;0.60;;;0.60;;
42000;SDS011;27689;48.390;10.856;2023-05-10T13:12:27;1.75;;;0.68;;
42000;SDS011;27689;48.390;10.856;2023-05-10T13:15:11;1.30;;;0.60;;
42000;SDS011;27689;48.390;10.856;2023-05-10T13:17:55;2.95;;;0.60;;
42000;SDS011;27689;48.390;10.856;2023-05-10T13:20:39;1.57;;;0.87;;
42000;SDS011;27689;48.390;10.856;2023-05-10T13:23:24;1.77;;;0.80;;
42000;SDS011;27689;48.390;10.856;2023-05-10T13:26:11;1.73;;;0.80;;
42000;SDS011;27689;48.390;10.856;2023-05-10T13:28:55;1.13;;;0.60;;
42000;SDS011;27689;48.390;10.856;2023-05-10T13:31:39;1.42;;;0.63;;
42000;SDS011;27689;48.390;10.856;2023-05-10T13:52:23;0.82;;;0.50;;
42000;SDS011;27689;48.390;10.856;2023-05-10T13:55:07;1.13;;;0.50;;
42000;SDS011;27689;48.390;10.856;2023-05-10T13:57:51;2.25;;;0.85;;
42000;SDS011;27689;48.390;10.856;2023-05-10T14:00:35;1.70;;;0.80;;
42000;SDS011;27689;48.390;10.856;2023-05-10T14:03:19;1.63;;;0.70;;
42000;SDS011;27689;48.390;10.856;2023-05-10T14:06:03;1.15;;;0.60;;
42000;SDS011;27689;48.390;10.856;2023-05-10T14:08:48;0.90;;;0.60;;
42000;SDS011;27689;48.390;10.856;2023-05-10T14:11:32;2.80;;;0.60;;
42000;SDS011;27689;48.390;10.856;2023-05-10T14:14:16;1.93;;;0.40;;
42000;SDS011;27689;48.390;10.856;2023-05-10T14:17:00;2.70;;;0.50;;
42000;SDS011;27689;48.390;10.856;2023-05-10T14:19:44;0.90;;;0.50;;
42000;SDS011;27689;48.390;10.856;2023-05-10T14:22:29;0.93;;;0.30;;
42000;SDS011;27689;48.390;10.856;2023-05-10T14:25:13;1.38;;;0.50;;
42000;SDS011;27689;48.390;10.856;2023-05-10T14:30:42;1.33;;;0.40;;
42000;SDS011;27689;48.390;10.856;2023-05-10T14:33:26;1.93;;;0.60;;
42000;SDS011;27689;48.390;10.856;2023-05-10T14:36:10;1.30;;;0.73;;
42000;SDS011;27689;48.390;10.856;2023-05-10T14:38:54;0.90;;;0.50;;
42000;SDS011;27689;48.390;10.856;2023-05-10T14:41:38;1.07;;;0.60;;
42000;SDS011;27689;48.390;10.856;2023-05-10T14:44:25;1.25;;;0.70;;
42000;SDS011;27689;48.390;10.856;2023-05-10T14:47:09;1.00;;;0.63;;
42000;SDS011;27689;48.390;10.856;2023-05-10T14:49:53;1.23;;;0.80;;
42000;SDS011;27689;48.390;10.856;2023-05-10T14:52:37;2.47;;;0.60;;
42000;SDS011;27689;48.390;10.856;2023-05-10T14:55:21;4.60;;;2.27;;
42000;SDS011;27689;48.390;10.856;2023-05-10T14:58:05;3.80;;;1.13;;
42000;SDS011;27689;48.390;10.856;2023-05-10T15:00:49;4.73;;;1.10;;
42000;SDS011;27689;48.390;10.856;2023-05-10T15:03:33;8.70;;;3.72;;
42000;SDS011;27689;48.390;10.856;2023-05-10T15:06:17;6.38;;;4.97;;
42000;SDS011;27689;48.390;10.856;2023-05-10T15:09:08;4.18;;;2.25;;
42000;SDS011;27689;48.390;10.856;2023-05-10T15:11:53;3.53;;;1.60;;
42000;SDS011;27689;48.390;10.856;2023-05-10T15:14:40;4.28;;;1.17;;
42000;SDS011;27689;48.390;10.856;2023-05-10T15:17:35;1.38;;;0.80;;
42000;SDS011;27689;48.390;10.856;2023-05-10T15:20:43;1.67;;;1.05;;
42000;SDS011;27689;48.390;10.856;2023-05-10T15:23:32;1.83;;;0.82;;
42000;SDS011;27689;48.390;10.856;2023-05-10T15:26:17;1.55;;;0.85;;
42000;SDS011;27689;48.390;10.856;2023-05-10T15:29:08;2.22;;;0.70;;
42000;SDS011;27689;48.390;10.856;2023-05-10T15:32:24;1.02;;;0.63;;
42000;SDS011;27689;48.390;10.856;2023-05-10T15:35:15;0.82;;;0.70;;
42000;SDS011;27689;48.390;10.856;2023-05-10T15:38:09;1.88;;;0.90;;
42000;SDS011;27689;48.390;10.856;2023-05-10T15:40:59;0.93;;;0.50;;
42000;SDS011;27689;48.390;10.856;2023-05-10T15:43:44;2.10;;;0.70;;
42000;SDS011;27689;48.390;10.856;2023-05-10T15:46:29;1.20;;;0.70;;
42000;SDS011;27689;48.390;10.856;2023-05-10T15:51:58;0.70;;;0.50;;
42000;SDS011;27689;48.390;10.856;2023-05-10T15:54:45;2.00;;;0.85;;
42000;SDS011;27689;48.390;10.856;2023-05-10T15:57:31;1.42;;;1.10;;
42000;SDS011;27689;48.390;10.856;2023-05-10T16:00:16;1.73;;;1.13;;
42000;SDS011;27689;48.390;10.856;2023-05-10T16:03:00;2.58;;;0.93;;
42000;SDS011;27689;48.390;10.856;2023-05-10T16:05:44;1.60;;;0.98;;
42000;SDS011;27689;48.390;10.856;2023-05-10T16:08:31;2.85;;;1.00;;
42000;SDS011;27689;48.390;10.856;2023-05-10T16:11:27;1.50;;;1.02;;
42000;SDS011;27689;48.390;10.856;2023-05-10T16:14:21;3.85;;;0.85;;
42000;SDS011;27689;48.390;10.856;2023-05-10T16:20:51;2.28;;;1.30;;
42000;SDS011;27689;48.390;10.856;2023-05-10T16:23:52;2.33;;;1.40;;
42000;SDS011;27689;48.390;10.856;2023-05-10T16:26:37;3.45;;;1.27;;
42000;SDS011;27689;48.390;10.856;2023-05-10T16:29:23;1.55;;;1.15;;
42000;SDS011;27689;48.390;10.856;2023-05-10T16:32:07;4.35;;;1.83;;
42000;SDS011;27689;48.390;10.856;2023-05-10T16:34:51;1.75;;;1.10;;
42000;SDS011;27689;48.390;10.856;2023-05-10T16:37:35;2.13;;;1.20;;
42000;SDS011;27689;48.390;10.856;2023-05-10T16:40:20;2.20;;;1.30;;
42000;SDS011;27689;48.390;10.856;2023-05-10T16:43:04;3.20;;;1.40;;
42000;SDS011;27689;48.390;10.856;2023-05-10T16:45:49;2.88;;;1.30;;
42000;SDS011;27689;48.390;10.856;2023-05-10T16:48:33;4.07;;;1.90;;
42000;SDS011;27689;48.390;10.856;2023-05-10T16:51:17;3.40;;;1.90;;
42000;SDS011;27689;48.390;10.856;2023-05-10T16:54:01;6.03;;;2.90;;
42000;SDS011;27689;48.390;10.856;2023-05-10T16:56:46;3.67;;;1.98;;
42000;SDS011;27689;48.390;10.856;2023-05-10T16:59:30;2.08;;;1.45;;
42000;SDS011;27689;48.390;10.856;2023-05-10T17:02:14;3.20;;;1.30;;
42000;SDS011;27689;48.390;10.856;2023-05-10T17:04:59;1.65;;;1.35;;
42000;SDS011;27689;48.390;10.856;2023-05-10T17:07:43;1.30;;;1.08;;
42000;SDS011;27689;48.390;10.856;2023-05-10T17:10:27;3.95;;;1.33;;
42000;SDS011;27689;48.390;10.856;2023-05-10T17:13:11;2.50;;;1.33;;
42000;SDS011;27689;48.390;10.856;2023-05-10T17:15:55;2.83;;;1.40;;
42000;SDS011;27689;48.390;10.856;2023-05-10T17:18:39;1.73;;;1.45;;
42000;SDS011;27689;48.390;10.856;2023-05-10T17:24:08;4.47;;;1.45;;
42000;SDS011;27689;48.390;10.856;2023-05-10T17:26:52;1.60;;;1.10;;
42000;SDS011;27689;48.390;10.856;2023-05-10T17:29:36;3.42;;;1.20;;
42000;SDS011;27689;48.390;10.856;2023-05-10T17:32:20;2.28;;;1.10;;
42000;SDS011;27689;48.390;10.856;2023-05-10T17:35:04;2.63;;;1.20;;
42000;SDS011;27689;48.390;10.856;2023-05-10T17:37:48;2.38;;;1.17;;
42000;SDS011;27689;48.390;10.856;2023-05-10T17:40:32;3.35;;;1.20;;
42000;SDS011;27689;48.390;10.856;2023-05-10T17:43:16;2.17;;;1.10;;
42000;SDS011;27689;48.390;10.856;2023-05-10T17:46:01;2.65;;;1.15;;
42000;SDS011;27689;48.390;10.856;2023-05-10T17:48:45;1.52;;;1.00;;
42000;SDS011;27689;48.390;10.856;2023-05-10T17:51:29;1.70;;;1.03;;
42000;SDS011;27689;48.390;10.856;2023-05-10T17:54:14;1.83;;;1.00;;
42000;SDS011;27689;48.390;10.856;2023-05-10T17:56:58;7.68;;;1.60;;